Irineopolis, Brazil
Current Conditions -  °F | °C
As of 7:00 PM on Thursday 23 Oct 2014 (Local Time) from SBCT Reporting Station
Few Clouds Few Clouds  
Wind Chill: 64°   Ceiling: Unl
Heat Index: 64°   Visibility: 6mi
Dew Point: 59°   Wind: 9mph
Humidity: 83%   Direction: 120°ESE
Pressure: 30.09"   Gusts: NA
Location:  26.24°S, 50.8°W
Report Text: SBCT 232100Z 12008KT 9999 FEW010 18/15 Q1019
Loading
Personal Weather Stations






























Interactive Weather Map
Tropical Storm Tracking
New forecast layout! Learn more

10-Day Weather Forecast

Advertisements
Track Severe Weather on mobile